sensor_id;sensor_type;location;lat;lon;timestamp;pressure;altitude;pressure_sealevel;temperature;humidity
24620;BME280;12763;55.802;37.404;2023-12-29T00:02:06;98689.13;;;-0.18;100.00
24620;BME280;12763;55.802;37.404;2023-12-29T00:04:32;98690.47;;;-0.22;100.00
24620;BME280;12763;55.802;37.404;2023-12-29T00:06:58;98684.22;;;-0.14;100.00
24620;BME280;12763;55.802;37.404;2023-12-29T00:09:24;98678.81;;;-0.22;100.00
24620;BME280;12763;55.802;37.404;2023-12-29T00:11:51;98673.50;;;-0.08;100.00
24620;BME280;12763;55.802;37.404;2023-12-29T00:14:17;98667.13;;;-0.31;100.00
24620;BME280;12763;55.802;37.404;2023-12-29T00:16:43;98658.31;;;-0.41;100.00
24620;BME280;12763;55.802;37.404;2023-12-29T00:19:11;98643.19;;;-0.19;100.00
24620;BME280;12763;55.802;37.404;2023-12-29T00:21:38;98648.47;;;-0.26;100.00
24620;BME280;12763;55.802;37.404;2023-12-29T00:24:04;98638.22;;;0.09;100.00
24620;BME280;12763;55.802;37.404;2023-12-29T00:26:31;98637.16;;;0.18;100.00
24620;BME280;12763;55.802;37.404;2023-12-29T00:28:57;98631.22;;;0.30;100.00
24620;BME280;12763;55.802;37.404;2023-12-29T00:31:24;98622.69;;;0.33;100.00
24620;BME280;12763;55.802;37.404;2023-12-29T00:33:51;98624.63;;;0.17;100.00
24620;BME280;12763;55.802;37.404;2023-12-29T00:36:20;98620.75;;;0.03;100.00
24620;BME280;12763;55.802;37.404;2023-12-29T00:38:47;98607.28;;;0.26;100.00
24620;BME280;12763;55.802;37.404;2023-12-29T00:41:13;98614.16;;;0.14;100.00
24620;BME280;12763;55.802;37.404;2023-12-29T00:43:41;98610.59;;;0.13;100.00
24620;BME280;12763;55.802;37.404;2023-12-29T00:46:08;98611.31;;;-0.09;100.00
24620;BME280;12763;55.802;37.404;2023-12-29T00:48:35;98608.03;;;0.12;100.00
24620;BME280;12763;55.802;37.404;2023-12-29T00:51:02;98598.63;;;-0.25;100.00
24620;BME280;12763;55.802;37.404;2023-12-29T00:53:30;98595.56;;;-0.06;100.00
24620;BME280;12763;55.802;37.404;2023-12-29T00:55:59;98579.22;;;0.11;100.00
24620;BME280;12763;55.802;37.404;2023-12-29T00:58:25;98579.63;;;-0.09;100.00
24620;BME280;12763;55.802;37.404;2023-12-29T01:00:53;98566.03;;;-0.01;100.00
24620;BME280;12763;55.802;37.404;2023-12-29T01:03:21;98562.16;;;-0.06;100.00
24620;BME280;12763;55.802;37.404;2023-12-29T01:05:47;98564.34;;;-0.02;100.00
24620;BME280;12763;55.802;37.404;2023-12-29T01:08:13;98569.22;;;0.03;100.00
24620;BME280;12763;55.802;37.404;2023-12-29T01:10:39;98563.50;;;-0.02;100.00
24620;BME280;12763;55.802;37.404;2023-12-29T01:13:05;98568.25;;;-0.04;100.00
24620;BME280;12763;55.802;37.404;2023-12-29T01:15:31;98562.94;;;0.11;100.00
24620;BME280;12763;55.802;37.404;2023-12-29T01:17:57;98561.50;;;0.23;100.00
24620;BME280;12763;55.802;37.404;2023-12-29T01:20:23;98561.16;;;0.26;100.00
24620;BME280;12763;55.802;37.404;2023-12-29T01:22:49;98560.53;;;0.16;100.00
24620;BME280;12763;55.802;37.404;2023-12-29T01:25:16;98555.94;;;-0.15;100.00
24620;BME280;12763;55.802;37.404;2023-12-29T01:27:44;98535.44;;;0.22;100.00
24620;BME280;12763;55.802;37.404;2023-12-29T01:30:10;98530.50;;;0.17;100.00
24620;BME280;12763;55.802;37.404;2023-12-29T01:32:37;98521.63;;;0.31;100.00
24620;BME280;12763;55.802;37.404;2023-12-29T01:35:04;98515.69;;;0.36;100.00
24620;BME280;12763;55.802;37.404;2023-12-29T01:37:31;98512.31;;;0.26;100.00
24620;BME280;12763;55.802;37.404;2023-12-29T01:39:58;98508.66;;;0.19;100.00
24620;BME280;12763;55.802;37.404;2023-12-29T01:42:24;98493.28;;;0.34;100.00
24620;BME280;12763;55.802;37.404;2023-12-29T01:44:50;98489.19;;;0.38;100.00
24620;BME280;12763;55.802;37.404;2023-12-29T01:47:20;98481.72;;;0.40;100.00
24620;BME280;12763;55.802;37.404;2023-12-29T01:49:48;98467.50;;;0.38;100.00
24620;BME280;12763;55.802;37.404;2023-12-29T01:52:16;98479.06;;;0.32;100.00
24620;BME280;12763;55.802;37.404;2023-12-29T01:54:47;98469.28;;;0.45;100.00
24620;BME280;12763;55.802;37.404;2023-12-29T01:57:14;98460.06;;;0.54;100.00
24620;BME280;12763;55.802;37.404;2023-12-29T01:59:42;98468.31;;;0.61;100.00
24620;BME280;12763;55.802;37.404;2023-12-29T02:02:11;98458.94;;;0.49;100.00
24620;BME280;12763;55.802;37.404;2023-12-29T02:04:38;98458.34;;;0.31;100.00
24620;BME280;12763;55.802;37.404;2023-12-29T02:07:05;98452.69;;;0.18;100.00
24620;BME280;12763;55.802;37.404;2023-12-29T02:09:32;98460.19;;;0.38;100.00
24620;BME280;12763;55.802;37.404;2023-12-29T02:12:00;98455.47;;;0.32;100.00
24620;BME280;12763;55.802;37.404;2023-12-29T02:14:26;98449.16;;;0.40;100.00
24620;BME280;12763;55.802;37.404;2023-12-29T02:19:46;98434.25;;;0.36;100.00
24620;BME280;12763;55.802;37.404;2023-12-29T02:22:14;98430.75;;;0.27;100.00
24620;BME280;12763;55.802;37.404;2023-12-29T02:24:50;98420.56;;;0.29;100.00
24620;BME280;12763;55.802;37.404;2023-12-29T02:27:34;98433.41;;;0.35;100.00
24620;BME280;12763;55.802;37.404;2023-12-29T02:32:49;98421.56;;;0.06;100.00
24620;BME280;12763;55.802;37.404;2023-12-29T02:35:23;98416.56;;;0.17;100.00
24620;BME280;12763;55.802;37.404;2023-12-29T02:37:49;98418.13;;;0.12;100.00
24620;BME280;12763;55.802;37.404;2023-12-29T02:40:16;98407.53;;;0.02;100.00
24620;BME280;12763;55.802;37.404;2023-12-29T02:42:47;98408.69;;;0.08;100.00
24620;BME280;12763;55.802;37.404;2023-12-29T02:45:17;98399.50;;;0.09;100.00
24620;BME280;12763;55.802;37.404;2023-12-29T02:47:43;98398.84;;;0.07;100.00
24620;BME280;12763;55.802;37.404;2023-12-29T02:50:10;98389.00;;;0.06;100.00
24620;BME280;12763;55.802;37.404;2023-12-29T02:52:36;98382.56;;;0.07;100.00
24620;BME280;12763;55.802;37.404;2023-12-29T02:55:03;98377.63;;;0.10;100.00
24620;BME280;12763;55.802;37.404;2023-12-29T02:57:30;98370.00;;;0.14;100.00
24620;BME280;12763;55.802;37.404;2023-12-29T02:59:56;98374.63;;;0.05;100.00
24620;BME280;12763;55.802;37.404;2023-12-29T03:02:23;98378.84;;;0.08;100.00
24620;BME280;12763;55.802;37.404;2023-12-29T03:04:49;98384.72;;;0.11;100.00
24620;BME280;12763;55.802;37.404;2023-12-29T03:07:16;98378.00;;;0.07;100.00
24620;BME280;12763;55.802;37.404;2023-12-29T03:09:42;98374.50;;;0.21;100.00
24620;BME280;12763;55.802;37.404;2023-12-29T03:12:09;98369.56;;;0.25;100.00
24620;BME280;12763;55.802;37.404;2023-12-29T03:14:35;98362.44;;;0.24;100.00
24620;BME280;12763;55.802;37.404;2023-12-29T03:17:01;98366.06;;;0.16;100.00
24620;BME280;12763;55.802;37.404;2023-12-29T03:19:27;98358.81;;;0.09;100.00
24620;BME280;12763;55.802;37.404;2023-12-29T03:21:53;98346.75;;;0.34;100.00
24620;BME280;12763;55.802;37.404;2023-12-29T03:24:20;98345.28;;;0.46;100.00
24620;BME280;12763;55.802;37.404;2023-12-29T03:26:48;98342.53;;;0.31;100.00
24620;BME280;12763;55.802;37.404;2023-12-29T03:29:14;98341.69;;;0.31;100.00
24620;BME280;12763;55.802;37.404;2023-12-29T03:31:40;98339.66;;;0.47;100.00
24620;BME280;12763;55.802;37.404;2023-12-29T03:34:06;98336.34;;;0.60;100.00
24620;BME280;12763;55.802;37.404;2023-12-29T03:36:33;98324.63;;;0.59;100.00
24620;BME280;12763;55.802;37.404;2023-12-29T03:38:59;98321.72;;;0.61;100.00
24620;BME280;12763;55.802;37.404;2023-12-29T03:41:25;98325.56;;;0.52;100.00
24620;BME280;12763;55.802;37.404;2023-12-29T03:43:51;98330.44;;;0.56;100.00
24620;BME280;12763;55.802;37.404;2023-12-29T03:46:17;98330.75;;;0.39;100.00
24620;BME280;12763;55.802;37.404;2023-12-29T03:48:44;98323.81;;;0.36;100.00
24620;BME280;12763;55.802;37.404;2023-12-29T03:51:10;98312.03;;;0.29;100.00
24620;BME280;12763;55.802;37.404;2023-12-29T03:53:36;98300.72;;;0.40;100.00
24620;BME280;12763;55.802;37.404;2023-12-29T03:56:06;98305.59;;;0.45;100.00
24620;BME280;12763;55.802;37.404;2023-12-29T03:58:33;98305.75;;;0.29;100.00
24620;BME280;12763;55.802;37.404;2023-12-29T04:00:59;98303.31;;;0.34;100.00
24620;BME280;12763;55.802;37.404;2023-12-29T04:03:25;98307.34;;;0.23;100.00
24620;BME280;12763;55.802;37.404;2023-12-29T04:05:51;98308.19;;;0.24;100.00
24620;BME280;12763;55.802;37.404;2023-12-29T04:08:17;98304.44;;;0.25;100.00
24620;BME280;12763;55.802;37.404;2023-12-29T04:10:43;98286.19;;;0.33;100.00
24620;BME280;12763;55.802;37.404;2023-12-29T04:13:09;98282.66;;;0.33;100.00
24620;BME280;12763;55.802;37.404;2023-12-29T04:15:35;98274.59;;;0.25;100.00
24620;BME280;12763;55.802;37.404;2023-12-29T04:18:01;98274.28;;;0.20;100.00
24620;BME280;12763;55.802;37.404;2023-12-29T04:20:27;98265.69;;;0.16;100.00
24620;BME280;12763;55.802;37.404;2023-12-29T04:22:53;98271.28;;;0.15;100.00
24620;BME280;12763;55.802;37.404;2023-12-29T04:25:19;98262.41;;;0.21;100.00
24620;BME280;12763;55.802;37.404;2023-12-29T04:27:44;98254.53;;;0.11;100.00
24620;BME280;12763;55.802;37.404;2023-12-29T04:30:11;98247.31;;;0.04;100.00
24620;BME280;12763;55.802;37.404;2023-12-29T04:32:36;98253.06;;;0.23;100.00
24620;BME280;12763;55.802;37.404;2023-12-29T04:35:03;98237.00;;;0.36;100.00
24620;BME280;12763;55.802;37.404;2023-12-29T04:37:30;98231.09;;;0.33;100.00
24620;BME280;12763;55.802;37.404;2023-12-29T04:39:56;98221.25;;;0.17;100.00
24620;BME280;12763;55.802;37.404;2023-12-29T04:42:22;98212.56;;;0.22;100.00
24620;BME280;12763;55.802;37.404;2023-12-29T04:44:48;98203.59;;;0.36;100.00
24620;BME280;12763;55.802;37.404;2023-12-29T04:47:14;98208.44;;;0.26;100.00
24620;BME280;12763;55.802;37.404;2023-12-29T04:49:41;98216.84;;;0.02;100.00
24620;BME280;12763;55.802;37.404;2023-12-29T04:52:06;98205.69;;;0.11;100.00
24620;BME280;12763;55.802;37.404;2023-12-29T04:54:32;98209.53;;;0.17;100.00
24620;BME280;12763;55.802;37.404;2023-12-29T04:56:59;98212.13;;;0.33;100.00
24620;BME280;12763;55.802;37.404;2023-12-29T04:59:25;98204.91;;;0.40;100.00
24620;BME280;12763;55.802;37.404;2023-12-29T05:01:50;98211.53;;;0.08;100.00
24620;BME280;12763;55.802;37.404;2023-12-29T05:04:16;98206.56;;;0.12;100.00
24620;BME280;12763;55.802;37.404;2023-12-29T05:06:42;98204.88;;;0.11;100.00
24620;BME280;12763;55.802;37.404;2023-12-29T05:09:08;98198.34;;;0.20;100.00
24620;BME280;12763;55.802;37.404;2023-12-29T05:11:34;98199.16;;;0.06;100.00
24620;BME280;12763;55.802;37.404;2023-12-29T05:14:00;98191.78;;;0.29;100.00
24620;BME280;12763;55.802;37.404;2023-12-29T05:16:26;98181.03;;;0.21;100.00
24620;BME280;12763;55.802;37.404;2023-12-29T05:18:52;98179.72;;;0.17;100.00
24620;BME280;12763;55.802;37.404;2023-12-29T05:21:18;98176.25;;;0.23;100.00
24620;BME280;12763;55.802;37.404;2023-12-29T05:23:45;98165.69;;;0.42;100.00
24620;BME280;12763;55.802;37.404;2023-12-29T05:26:12;98165.78;;;0.34;100.00
24620;BME280;12763;55.802;37.404;2023-12-29T05:28:38;98163.28;;;0.33;100.00
24620;BME280;12763;55.802;37.404;2023-12-29T05:31:03;98168.97;;;0.23;100.00
24620;BME280;12763;55.802;37.404;2023-12-29T05:33:32;98170.38;;;0.34;100.00
24620;BME280;12763;55.802;37.404;2023-12-29T05:35:59;98166.81;;;0.33;100.00
24620;BME280;12763;55.802;37.404;2023-12-29T05:38:31;98173.75;;;0.21;100.00
24620;BME280;12763;55.802;37.404;2023-12-29T05:40:57;98166.72;;;0.27;100.00
24620;BME280;12763;55.802;37.404;2023-12-29T05:43:22;98162.41;;;0.18;100.00
24620;BME280;12763;55.802;37.404;2023-12-29T05:45:48;98171.50;;;0.25;100.00
24620;BME280;12763;55.802;37.404;2023-12-29T05:48:14;98171.88;;;0.22;100.00
24620;BME280;12763;55.802;37.404;2023-12-29T05:50:40;98168.69;;;0.18;100.00
24620;BME280;12763;55.802;37.404;2023-12-29T05:53:06;98162.78;;;0.15;100.00
24620;BME280;12763;55.802;37.404;2023-12-29T05:55:32;98161.84;;;0.37;100.00
24620;BME280;12763;55.802;37.404;2023-12-29T05:57:58;98158.66;;;0.48;100.00
24620;BME280;12763;55.802;37.404;2023-12-29T06:00:24;98163.25;;;0.47;100.00
24620;BME280;12763;55.802;37.404;2023-12-29T06:02:50;98164.31;;;0.46;100.00
24620;BME280;12763;55.802;37.404;2023-12-29T06:05:16;98165.16;;;0.32;100.00
24620;BME280;12763;55.802;37.404;2023-12-29T06:07:41;98144.38;;;0.25;100.00
24620;BME280;12763;55.802;37.404;2023-12-29T06:10:08;98149.41;;;0.28;100.00
24620;BME280;12763;55.802;37.404;2023-12-29T06:12:35;98150.44;;;0.27;100.00
24620;BME280;12763;55.802;37.404;2023-12-29T06:15:02;98142.38;;;0.48;100.00
24620;BME280;12763;55.802;37.404;2023-12-29T06:17:30;98151.66;;;0.53;100.00
24620;BME280;12763;55.802;37.404;2023-12-29T06:19:58;98136.38;;;0.67;100.00
24620;BME280;12763;55.802;37.404;2023-12-29T06:22:26;98147.59;;;0.64;100.00
24620;BME280;12763;55.802;37.404;2023-12-29T06:24:52;98133.88;;;0.51;100.00
24620;BME280;12763;55.802;37.404;2023-12-29T06:27:18;98136.59;;;0.51;100.00
24620;BME280;12763;55.802;37.404;2023-12-29T06:29:44;98124.06;;;0.21;100.00
24620;BME280;12763;55.802;37.404;2023-12-29T06:32:10;98120.59;;;0.41;100.00
24620;BME280;12763;55.802;37.404;2023-12-29T06:34:36;98118.59;;;0.65;100.00
24620;BME280;12763;55.802;37.404;2023-12-29T06:37:03;98117.75;;;0.64;100.00
24620;BME280;12763;55.802;37.404;2023-12-29T06:39:29;98113.28;;;0.42;100.00
24620;BME280;12763;55.802;37.404;2023-12-29T06:41:54;98123.38;;;0.48;100.00
24620;BME280;12763;55.802;37.404;2023-12-29T06:44:20;98120.66;;;0.63;100.00
24620;BME280;12763;55.802;37.404;2023-12-29T06:46:47;98130.94;;;0.67;100.00
24620;BME280;12763;55.802;37.404;2023-12-29T06:49:13;98126.06;;;0.77;100.00
24620;BME280;12763;55.802;37.404;2023-12-29T06:51:38;98119.78;;;0.77;100.00
24620;BME280;12763;55.802;37.404;2023-12-29T06:54:07;98120.78;;;0.90;100.00
24620;BME280;12763;55.802;37.404;2023-12-29T06:56:33;98126.22;;;0.90;100.00
24620;BME280;12763;55.802;37.404;2023-12-29T06:58:59;98124.66;;;1.02;100.00
24620;BME280;12763;55.802;37.404;2023-12-29T07:01:24;98125.06;;;0.99;100.00
24620;BME280;12763;55.802;37.404;2023-12-29T07:03:50;98114.88;;;0.87;100.00
24620;BME280;12763;55.802;37.404;2023-12-29T07:06:16;98111.53;;;0.85;100.00
24620;BME280;12763;55.802;37.404;2023-12-29T07:08:42;98098.97;;;0.84;100.00
24620;BME280;12763;55.802;37.404;2023-12-29T07:11:11;98097.91;;;0.99;100.00
24620;BME280;12763;55.802;37.404;2023-12-29T07:13:38;98103.56;;;0.83;100.00
24620;BME280;12763;55.802;37.404;2023-12-29T07:16:04;98096.97;;;0.92;100.00
24620;BME280;12763;55.802;37.404;2023-12-29T07:18:30;98103.72;;;0.96;100.00
24620;BME280;12763;55.802;37.404;2023-12-29T07:20:56;98105.50;;;0.89;100.00
24620;BME280;12763;55.802;37.404;2023-12-29T07:23:22;98111.28;;;1.01;100.00
24620;BME280;12763;55.802;37.404;2023-12-29T07:25:48;98100.75;;;1.12;100.00
24620;BME280;12763;55.802;37.404;2023-12-29T07:28:14;98091.09;;;1.31;100.00
24620;BME280;12763;55.802;37.404;2023-12-29T07:30:40;98098.09;;;1.19;100.00
24620;BME280;12763;55.802;37.404;2023-12-29T07:33:06;98107.22;;;1.11;100.00
24620;BME280;12763;55.802;37.404;2023-12-29T07:39:32;98105.25;;;1.48;100.00
24620;BME280;12763;55.802;37.404;2023-12-29T07:41:58;98090.50;;;1.57;100.00
24620;BME280;12763;55.802;37.404;2023-12-29T07:44:30;98090.03;;;1.53;100.00
24620;BME280;12763;55.802;37.404;2023-12-29T07:50:58;98088.81;;;1.56;100.00
24620;BME280;12763;55.802;37.404;2023-12-29T07:53:29;98090.50;;;1.57;100.00
24620;BME280;12763;55.802;37.404;2023-12-29T07:55:55;98087.13;;;1.55;100.00
24620;BME280;12763;55.802;37.404;2023-12-29T08:01:31;98072.94;;;1.32;100.00
24620;BME280;12763;55.802;37.404;2023-12-29T08:03:57;98084.69;;;1.39;100.00
24620;BME280;12763;55.802;37.404;2023-12-29T08:06:23;98080.06;;;1.60;100.00
24620;BME280;12763;55.802;37.404;2023-12-29T08:08:49;98076.59;;;1.45;100.00
24620;BME280;12763;55.802;37.404;2023-12-29T08:11:16;98075.69;;;1.38;100.00
24620;BME280;12763;55.802;37.404;2023-12-29T08:13:47;98074.72;;;1.46;100.00
24620;BME280;12763;55.802;37.404;2023-12-29T08:16:14;98080.69;;;1.35;100.00
24620;BME280;12763;55.802;37.404;2023-12-29T08:18:40;98075.34;;;1.48;100.00
24620;BME280;12763;55.802;37.404;2023-12-29T08:21:06;98079.78;;;1.49;100.00
24620;BME280;12763;55.802;37.404;2023-12-29T08:23:31;98075.81;;;1.51;100.00
24620;BME280;12763;55.802;37.404;2023-12-29T08:25:57;98068.75;;;1.57;100.00
24620;BME280;12763;55.802;37.404;2023-12-29T08:28:26;98067.16;;;1.69;100.00
24620;BME280;12763;55.802;37.404;2023-12-29T08:30:52;98056.78;;;1.79;100.00
24620;BME280;12763;55.802;37.404;2023-12-29T08:33:18;98061.91;;;1.95;100.00
24620;BME280;12763;55.802;37.404;2023-12-29T08:35:44;98052.22;;;1.86;100.00
24620;BME280;12763;55.802;37.404;2023-12-29T08:38:11;98056.47;;;2.02;100.00
24620;BME280;12763;55.802;37.404;2023-12-29T08:40:37;98061.75;;;2.03;100.00
24620;BME280;12763;55.802;37.404;2023-12-29T08:43:03;98051.75;;;1.76;100.00
24620;BME280;12763;55.802;37.404;2023-12-29T08:45:29;98047.25;;;1.96;100.00
24620;BME280;12763;55.802;37.404;2023-12-29T08:47:55;98036.22;;;1.70;100.00
24620;BME280;12763;55.802;37.404;2023-12-29T08:50:21;98045.91;;;1.79;100.00
24620;BME280;12763;55.802;37.404;2023-12-29T08:52:47;98050.03;;;1.75;100.00
24620;BME280;12763;55.802;37.404;2023-12-29T08:55:13;98033.25;;;1.99;100.00
24620;BME280;12763;55.802;37.404;2023-12-29T08:57:39;98040.66;;;1.50;100.00
24620;BME280;12763;55.802;37.404;2023-12-29T09:00:05;98026.34;;;1.62;100.00
24620;BME280;12763;55.802;37.404;2023-12-29T09:02:32;98037.09;;;1.77;100.00
24620;BME280;12763;55.802;37.404;2023-12-29T09:04:58;98034.28;;;1.64;100.00
24620;BME280;12763;55.802;37.404;2023-12-29T09:07:23;98023.31;;;1.78;100.00
24620;BME280;12763;55.802;37.404;2023-12-29T09:09:49;98037.09;;;1.77;100.00
24620;BME280;12763;55.802;37.404;2023-12-29T09:12:16;98027.81;;;1.65;100.00
24620;BME280;12763;55.802;37.404;2023-12-29T09:14:42;98018.31;;;1.82;100.00
24620;BME280;12763;55.802;37.404;2023-12-29T09:17:08;98023.81;;;1.95;100.00
24620;BME280;12763;55.802;37.404;2023-12-29T09:19:34;98024.09;;;1.72;100.00
24620;BME280;12763;55.802;37.404;2023-12-29T09:22:01;98003.19;;;2.14;100.00
24620;BME280;12763;55.802;37.404;2023-12-29T09:24:27;98007.22;;;2.24;100.00
24620;BME280;12763;55.802;37.404;2023-12-29T09:26:55;97998.63;;;2.21;100.00
24620;BME280;12763;55.802;37.404;2023-12-29T09:29:21;97992.31;;;2.14;100.00
24620;BME280;12763;55.802;37.404;2023-12-29T09:31:47;97995.44;;;2.11;100.00
24620;BME280;12763;55.802;37.404;2023-12-29T09:34:13;98008.50;;;2.28;100.00
24620;BME280;12763;55.802;37.404;2023-12-29T09:36:39;97999.72;;;2.26;100.00
24620;BME280;12763;55.802;37.404;2023-12-29T09:39:05;98013.53;;;2.38;100.00
24620;BME280;12763;55.802;37.404;2023-12-29T09:41:31;98013.50;;;2.25;100.00
24620;BME280;12763;55.802;37.404;2023-12-29T09:44:01;98001.13;;;2.22;100.00
24620;BME280;12763;55.802;37.404;2023-12-29T09:46:32;97991.91;;;2.17;100.00
24620;BME280;12763;55.802;37.404;2023-12-29T09:49:02;97997.22;;;2.38;100.00
24620;BME280;12763;55.802;37.404;2023-12-29T09:51:30;97989.34;;;2.56;100.00
24620;BME280;12763;55.802;37.404;2023-12-29T09:53:56;97994.53;;;2.45;100.00
24620;BME280;12763;55.802;37.404;2023-12-29T09:56:24;97995.75;;;2.35;100.00
24620;BME280;12763;55.802;37.404;2023-12-29T09:58:51;97995.75;;;2.35;100.00
24620;BME280;12763;55.802;37.404;2023-12-29T10:01:18;97983.91;;;2.09;100.00
24620;BME280;12763;55.802;37.404;2023-12-29T10:03:45;97990.78;;;2.46;100.00
24620;BME280;12763;55.802;37.404;2023-12-29T10:06:13;97976.34;;;2.58;100.00
24620;BME280;12763;55.802;37.404;2023-12-29T10:08:45;97982.59;;;2.46;100.00
24620;BME280;12763;55.802;37.404;2023-12-29T10:11:11;97977.13;;;2.39;100.00
24620;BME280;12763;55.802;37.404;2023-12-29T10:13:42;97975.84;;;2.28;100.00
24620;BME280;12763;55.802;37.404;2023-12-29T10:16:18;97986.53;;;2.36;100.00
24620;BME280;12763;55.802;37.404;2023-12-29T10:21:28;97983.53;;;2.18;100.00
24620;BME280;12763;55.802;37.404;2023-12-29T10:26:21;97990.44;;;2.14;100.00
24620;BME280;12763;55.802;37.404;2023-12-29T10:28:48;97986.31;;;2.31;100.00
24620;BME280;12763;55.802;37.404;2023-12-29T10:31:15;97986.59;;;2.02;100.00
24620;BME280;12763;55.802;37.404;2023-12-29T10:33:42;97977.22;;;2.11;100.00
24620;BME280;12763;55.802;37.404;2023-12-29T10:36:08;97981.91;;;2.30;100.00
24620;BME280;12763;55.802;37.404;2023-12-29T10:38:34;97981.69;;;2.32;100.00
24620;BME280;12763;55.802;37.404;2023-12-29T10:41:18;97981.34;;;2.48;100.00
24620;BME280;12763;55.802;37.404;2023-12-29T10:43:45;97969.81;;;2.46;100.00
24620;BME280;12763;55.802;37.404;2023-12-29T10:46:20;97977.22;;;2.11;100.00
24620;BME280;12763;55.802;37.404;2023-12-29T10:48:46;97974.56;;;2.24;100.00
24620;BME280;12763;55.802;37.404;2023-12-29T10:51:12;97968.75;;;2.34;100.00
24620;BME280;12763;55.802;37.404;2023-12-29T10:53:38;97972.13;;;2.43;100.00
24620;BME280;12763;55.802;37.404;2023-12-29T10:56:16;97982.56;;;2.39;100.00
24620;BME280;12763;55.802;37.404;2023-12-29T10:58:45;97977.53;;;2.36;100.00
24620;BME280;12763;55.802;37.404;2023-12-29T11:01:14;97985.88;;;2.28;100.00
24620;BME280;12763;55.802;37.404;2023-12-29T11:03:57;97978.56;;;2.35;100.00
24620;BME280;12763;55.802;37.404;2023-12-29T11:06:24;97970.44;;;2.42;100.00
24620;BME280;12763;55.802;37.404;2023-12-29T11:08:50;97968.75;;;2.41;100.00
24620;BME280;12763;55.802;37.404;2023-12-29T11:11:16;97975.63;;;2.23;100.00
24620;BME280;12763;55.802;37.404;2023-12-29T11:13:45;97979.41;;;2.35;100.00
24620;BME280;12763;55.802;37.404;2023-12-29T11:16:12;97972.59;;;2.59;100.00
24620;BME280;12763;55.802;37.404;2023-12-29T11:18:40;97978.84;;;2.60;100.00
24620;BME280;12763;55.802;37.404;2023-12-29T11:21:08;97978.03;;;2.59;100.00
24620;BME280;12763;55.802;37.404;2023-12-29T11:23:35;97962.56;;;2.86;100.00
24620;BME280;12763;55.802;37.404;2023-12-29T11:26:03;97967.41;;;2.84;100.00
24620;BME280;12763;55.802;37.404;2023-12-29T11:28:28;97969.88;;;2.72;100.00
24620;BME280;12763;55.802;37.404;2023-12-29T11:30:54;97971.78;;;2.85;100.00
24620;BME280;12763;55.802;37.404;2023-12-29T11:33:31;97980.19;;;3.03;100.00
24620;BME280;12763;55.802;37.404;2023-12-29T11:36:10;97980.59;;;2.87;100.00
24620;BME280;12763;55.802;37.404;2023-12-29T11:38:47;97982.69;;;2.78;100.00
24620;BME280;12763;55.802;37.404;2023-12-29T11:43:58;97998.16;;;2.71;100.00
24620;BME280;12763;55.802;37.404;2023-12-29T11:46:42;97976.16;;;2.79;100.00
24620;BME280;12763;55.802;37.404;2023-12-29T11:49:09;97969.91;;;2.92;100.00
24620;BME280;12763;55.802;37.404;2023-12-29T11:51:47;97974.75;;;3.03;100.00
24620;BME280;12763;55.802;37.404;2023-12-29T11:54:25;97975.53;;;2.77;100.00
24620;BME280;12763;55.802;37.404;2023-12-29T11:56:54;97983.94;;;2.95;100.00
24620;BME280;12763;55.802;37.404;2023-12-29T11:59:22;97979.78;;;3.06;100.00
24620;BME280;12763;55.802;37.404;2023-12-29T12:01:57;97979.13;;;3.04;100.00
24620;BME280;12763;55.802;37.404;2023-12-29T12:04:39;97971.59;;;3.13;100.00
24620;BME280;12763;55.802;37.404;2023-12-29T12:07:17;97986.47;;;2.97;100.00
24620;BME280;12763;55.802;37.404;2023-12-29T12:09:43;97986.69;;;3.15;100.00
24620;BME280;12763;55.802;37.404;2023-12-29T12:12:10;97986.91;;;3.20;100.00
24620;BME280;12763;55.802;37.404;2023-12-29T12:14:52;97993.22;;;3.34;100.00
24620;BME280;12763;55.802;37.404;2023-12-29T12:20:04;97985.84;;;3.34;100.00
24620;BME280;12763;55.802;37.404;2023-12-29T12:22:35;98001.59;;;3.19;100.00
24620;BME280;12763;55.802;37.404;2023-12-29T12:25:01;97993.22;;;3.34;100.00
24620;BME280;12763;55.802;37.404;2023-12-29T12:27:31;97991.28;;;3.34;100.00
24620;BME280;12763;55.802;37.404;2023-12-29T12:29:58;98001.78;;;3.24;100.00
24620;BME280;12763;55.802;37.404;2023-12-29T12:32:27;98007.44;;;3.29;100.00
24620;BME280;12763;55.802;37.404;2023-12-29T12:34:55;98002.63;;;3.44;100.00
24620;BME280;12763;55.802;37.404;2023-12-29T12:37:26;98001.16;;;3.35;100.00
24620;BME280;12763;55.802;37.404;2023-12-29T12:39:53;98012.28;;;3.34;100.00
24620;BME280;12763;55.802;37.404;2023-12-29T12:42:19;98005.16;;;3.39;100.00
24620;BME280;12763;55.802;37.404;2023-12-29T12:44:56;98019.63;;;3.46;100.00
24620;BME280;12763;55.802;37.404;2023-12-29T12:47:36;98012.06;;;3.48;100.00
24620;BME280;12763;55.802;37.404;2023-12-29T12:50:04;98017.31;;;3.50;100.00
24620;BME280;12763;55.802;37.404;2023-12-29T12:52:32;98016.25;;;3.51;100.00
24620;BME280;12763;55.802;37.404;2023-12-29T12:54:58;98026.13;;;3.52;100.00
24620;BME280;12763;55.802;37.404;2023-12-29T12:57:25;98023.41;;;3.59;100.00
24620;BME280;12763;55.802;37.404;2023-12-29T12:59:53;98029.66;;;3.85;100.00
24620;BME280;12763;55.802;37.404;2023-12-29T13:02:20;98035.13;;;3.66;100.00
24620;BME280;12763;55.802;37.404;2023-12-29T13:04:47;98033.25;;;3.60;100.00
24620;BME280;12763;55.802;37.404;2023-12-29T13:07:17;98029.88;;;3.77;100.00
24620;BME280;12763;55.802;37.404;2023-12-29T13:09:45;98027.16;;;3.71;100.00
24620;BME280;12763;55.802;37.404;2023-12-29T13:12:13;98025.09;;;3.53;100.00
24620;BME280;12763;55.802;37.404;2023-12-29T13:14:39;98027.56;;;3.74;100.00
24620;BME280;12763;55.802;37.404;2023-12-29T13:17:10;98016.84;;;3.86;100.00
24620;BME280;12763;55.802;37.404;2023-12-29T13:19:37;98016.25;;;3.71;100.00